KBCT/BCT METAR and TAF weather

Enter ICAO airport designator
Station Type Date Time Source
KBCT METAR 2022/06/28 23:53 UTC NOAA

KBCT 282353Z 1307G15KT 10SM SCT030 29/22 A3009


Station Type Date Time Source
KBCT Decoded METAR 2022/06/28 23:53 UTC NOAA

Boca Raton, Boca Raton Airport, FL, United States (KBCT) 26-22-43N 080-06-28W
Jun 28, 2022 - 07:53 PM EDT / 2022.06.28 2353 UTC
Visibility: 10 mile(s):0
Sky conditions: partly cloudy
Temperature: 84 F (29 C)
Dew Point: 71 F (22 C)
Relative Humidity: 65%
Pressure (altimeter): 30.09 in. Hg (1018 hPa)
ob: KBCT 282353Z 1307G15KT 10SM SCT030 29/22 A3009
cycle: 0

Station Type Date Time Source
KBCT TAF 2020/02/03 18:20 UTC NOAA

TAF KBCT 031720Z 0318/0418 12005KT P6SM SKC
FM040000 VRB03KT P6SM SKC
FM041400 16011KT P6SM FEW030

Example: see airport list